Time;durP1;ratioP1;P1;durP2;ratioP2;P2;SDS_P1;SDS_P2;PMS_P1;PMS_P2;Temp;Humidity;BMP_temperature;BMP_pressure;BME280_temperature;BME280_humidity;BME280_pressure;Samples;Min_cycle;Max_cycle;Signal;HPM_P1;HPM_P2
2021/07/18 05:56:49;;;;;;;15.17;4.63;;;;;;;;;;5059506;28;20059;-59
2021/07/18 05:59:22;;;;;;;17.17;5.83;;;;;;;;;;5032945;28;20033;-59
2021/07/18 06:01:49;;;;;;;19.53;6.30;;;;;;;;;;5032930;28;20029;-58
2021/07/18 06:04:17;;;;;;;16.23;6.70;;;;;;;;;;5032876;28;20443;-58
2021/07/18 06:06:43;;;;;;;12.90;6.07;;;;;;;;;;5033020;28;20022;-58
2021/07/18 06:09:10;;;;;;;13.13;5.37;;;;;;;;;;5032756;28;20041;-58
2021/07/18 06:11:37;;;;;;;14.47;5.60;;;;;;;;;;5032962;28;20064;-59
2021/07/18 06:14:04;;;;;;;12.90;6.37;;;;;;;;;;5032855;28;20056;-59
2021/07/18 06:16:31;;;;;;;15.70;6.47;;;;;;;;;;5032855;28;20060;-59
2021/07/18 06:18:58;;;;;;;20.47;5.83;;;;;;;;;;5032772;28;20030;-59
2021/07/18 06:21:24;;;;;;;16.50;5.27;;;;;;;;;;5032763;28;20045;-58
2021/07/18 06:23:51;;;;;;;17.00;5.90;;;;;;;;;;5032651;28;20455;-59
2021/07/18 06:26:18;;;;;;;14.77;5.93;;;;;;;;;;5032534;28;20444;-58
2021/07/18 06:28:45;;;;;;;17.37;5.07;;;;;;;;;;5032489;28;20473;-59
2021/07/18 06:31:12;;;;;;;15.43;5.17;;;;;;;;;;5032615;28;20028;-58
2021/07/18 06:33:39;;;;;;;16.47;4.90;;;;;;;;;;5032720;28;20083;-59
2021/07/18 06:36:06;;;;;;;15.80;5.10;;;;;;;;;;5032568;28;20026;-59
2021/07/18 06:38:35;;;;;;;13.67;5.37;;;;;;;;;;5032706;28;20041;-58
2021/07/18 06:41:03;;;;;;;21.07;6.20;;;;;;;;;;5032469;28;20033;-58
2021/07/18 06:43:30;;;;;;;18.37;5.83;;;;;;;;;;5032477;28;20110;-58
2021/07/18 06:45:56;;;;;;;10.70;4.60;;;;;;;;;;5032493;28;20373;-59
2021/07/18 06:48:23;;;;;;;17.40;5.57;;;;;;;;;;5032518;28;20052;-58
2021/07/18 06:50:50;;;;;;;21.40;6.77;;;;;;;;;;5032484;28;20361;-58
2021/07/18 06:53:17;;;;;;;21.30;5.90;;;;;;;;;;5032522;28;20056;-59
2021/07/18 06:55:43;;;;;;;14.17;5.43;;;;;;;;;;5014793;28;20021;-58
2021/07/18 06:58:10;;;;;;;19.40;5.83;;;;;;;;;;5034043;28;20073;-58
2021/07/18 07:00:37;;;;;;;14.10;6.40;;;;;;;;;;5032476;28;20131;-58
2021/07/18 07:03:04;;;;;;;14.83;5.63;;;;;;;;;;5032648;28;20032;-58
2021/07/18 07:05:31;;;;;;;15.10;4.30;;;;;;;;;;5032192;28;20072;-58
2021/07/18 07:07:57;;;;;;;11.60;4.87;;;;;;;;;;5032237;28;20065;-58
2021/07/18 07:10:24;;;;;;;16.13;5.70;;;;;;;;;;5032361;28;20026;-58
2021/07/18 07:12:51;;;;;;;13.93;5.20;;;;;;;;;;5032346;28;20018;-58
2021/07/18 07:15:18;;;;;;;9.03;4.07;;;;;;;;;;5032254;28;20028;-58
2021/07/18 07:17:45;;;;;;;12.67;6.10;;;;;;;;;;5032218;28;20030;-58
2021/07/18 07:20:12;;;;;;;12.53;5.20;;;;;;;;;;5032280;28;20080;-58
2021/07/18 07:22:39;;;;;;;12.03;4.80;;;;;;;;;;5032211;28;20373;-58
2021/07/18 07:25:10;;;;;;;17.10;5.03;;;;;;;;;;5032181;28;20025;-58
2021/07/18 07:27:37;;;;;;;14.37;5.50;;;;;;;;;;5032164;28;20028;-58
2021/07/18 07:30:11;;;;;;;13.37;4.77;;;;;;;;;;5032170;28;20440;-58
2021/07/18 07:32:38;;;;;;;10.90;5.20;;;;;;;;;;5032097;28;20443;-58
2021/07/18 07:35:09;;;;;;;10.67;4.63;;;;;;;;;;5032216;28;20030;-58
2021/07/18 07:37:36;;;;;;;13.07;4.30;;;;;;;;;;5031983;28;20376;-58
2021/07/18 07:40:06;;;;;;;12.37;5.60;;;;;;;;;;5034147;28;20021;-58
2021/07/18 07:42:33;;;;;;;11.97;4.37;;;;;;;;;;5035678;28;20439;-58
2021/07/18 07:45:00;;;;;;;11.73;4.33;;;;;;;;;;5035459;28;20033;-58
2021/07/18 07:47:27;;;;;;;15.90;4.90;;;;;;;;;;5035456;28;20021;-58
2021/07/18 07:49:54;;;;;;;9.67;4.23;;;;;;;;;;5035346;28;20380;-58
2021/07/18 07:52:20;;;;;;;13.83;4.40;;;;;;;;;;5035426;28;20026;-58
2021/07/18 07:54:47;;;;;;;13.47;4.57;;;;;;;;;;5033651;28;20480;-58
2021/07/18 07:57:14;;;;;;;13.93;4.33;;;;;;;;;;5036629;28;20461;-58
2021/07/18 07:59:41;;;;;;;12.20;4.37;;;;;;;;;;5035239;28;20186;-58
2021/07/18 08:02:08;;;;;;;14.37;4.63;;;;;;;;;;5035112;28;20428;-58
2021/07/18 08:04:35;;;;;;;12.80;4.20;;;;;;;;;;5035091;28;20041;-58
2021/07/18 08:07:02;;;;;;;9.37;4.10;;;;;;;;;;5035075;28;20029;-58
2021/07/18 08:09:28;;;;;;;9.70;4.10;;;;;;;;;;5035141;28;20135;-58
2021/07/18 08:11:55;;;;;;;13.87;5.13;;;;;;;;;;5035052;28;20026;-58
2021/07/18 08:14:22;;;;;;;17.90;5.00;;;;;;;;;;5035112;28;20574;-58
2021/07/18 08:16:49;;;;;;;15.23;4.57;;;;;;;;;;5034759;28;20033;-58
2021/07/18 08:19:16;;;;;;;10.97;5.13;;;;;;;;;;5034983;28;20033;-58
2021/07/18 08:21:43;;;;;;;9.73;4.87;;;;;;;;;;5034883;28;20104;-58
2021/07/18 08:24:10;;;;;;;9.80;4.60;;;;;;;;;;5035020;28;20034;-58
2021/07/18 08:26:37;;;;;;;13.60;4.43;;;;;;;;;;5034648;28;20017;-58
2021/07/18 08:29:04;;;;;;;9.43;4.07;;;;;;;;;;5026685;28;20108;-58
2021/07/18 08:31:31;;;;;;;16.97;4.93;;;;;;;;;;5034811;28;20022;-58
2021/07/18 08:33:57;;;;;;;11.63;5.13;;;;;;;;;;5034696;28;20044;-58
2021/07/18 12:07:14;;;;;;;16.38;5.85;;;;;;;;;;5058714;28;20057;-59
2021/07/18 12:09:45;;;;;;;16.95;6.65;;;;;;;;;;5035165;28;20030;-58
2021/07/18 12:12:17;;;;;;;17.70;5.97;;;;;;;;;;5034852;28;20329;-59
2021/07/18 12:14:44;;;;;;;12.07;5.70;;;;;;;;;;5034870;28;20029;-58
2021/07/18 12:17:13;;;;;;;17.70;5.93;;;;;;;;;;5034886;28;20514;-58
2021/07/18 12:19:41;;;;;;;13.13;6.27;;;;;;;;;;5034901;28;20080;-58
2021/07/18 12:22:09;;;;;;;11.90;4.67;;;;;;;;;;5035015;28;20048;-58
2021/07/18 12:24:38;;;;;;;11.40;5.00;;;;;;;;;;5034154;28;20116;-59
2021/07/18 12:27:06;;;;;;;16.27;5.17;;;;;;;;;;5035474;28;20025;-58
2021/07/18 12:29:41;;;;;;;14.77;6.27;;;;;;;;;;5034735;28;20038;-59
2021/07/18 12:32:08;;;;;;;12.27;5.28;;;;;;;;;;5034676;28;20040;-59
2021/07/18 12:34:45;;;;;;;9.83;4.80;;;;;;;;;;5034672;28;20029;-58
2021/07/18 12:37:19;;;;;;;14.70;5.50;;;;;;;;;;5034552;28;20021;-59
2021/07/18 12:39:47;;;;;;;17.85;5.78;;;;;;;;;;5034651;28;20087;-58
2021/07/18 12:42:26;;;;;;;16.73;5.83;;;;;;;;;;5034498;28;20033;-59
2021/07/18 12:45:09;;;;;;;17.03;7.33;;;;;;;;;;5034357;28;20029;-58
2021/07/18 12:47:37;;;;;;;20.83;6.13;;;;;;;;;;5034263;28;20037;-58
2021/07/18 12:50:09;;;;;;;23.73;7.00;;;;;;;;;;5034357;28;20036;-58
2021/07/18 12:52:38;;;;;;;15.67;6.17;;;;;;;;;;5016543;28;20517;-58
2021/07/18 12:55:17;;;;;;;13.50;5.47;;;;;;;;;;5034283;28;20029;-58
2021/07/18 12:57:44;;;;;;;17.77;5.63;;;;;;;;;;5034293;28;20036;-58
2021/07/18 13:00:12;;;;;;;11.07;4.50;;;;;;;;;;5034364;28;20372;-58
2021/07/18 13:02:39;;;;;;;15.43;5.33;;;;;;;;;;5034368;28;20468;-59
2021/07/18 13:05:07;;;;;;;13.50;4.77;;;;;;;;;;5034066;28;20087;-58
2021/07/18 13:07:34;;;;;;;15.97;5.30;;;;;;;;;;5035600;28;20148;-58
2021/07/18 13:10:09;;;;;;;15.00;5.40;;;;;;;;;;5033943;28;20044;-58
2021/07/18 13:12:36;;;;;;;11.93;5.83;;;;;;;;;;5033837;28;20024;-58
2021/07/18 13:15:13;;;;;;;13.10;4.97;;;;;;;;;;5034114;28;20149;-59
2021/07/18 13:18:00;;;;;;;21.57;5.50;;;;;;;;;;5033892;28;20088;-59
2021/07/18 13:20:28;;;;;;;14.20;5.67;;;;;;;;;;5033796;28;20358;-58
2021/07/18 13:22:55;;;;;;;14.40;4.87;;;;;;;;;;5033737;28;20029;-59
2021/07/18 13:25:24;;;;;;;15.00;5.10;;;;;;;;;;5033604;28;20048;-59
2021/07/18 13:27:54;;;;;;;18.67;5.77;;;;;;;;;;5033500;28;20068;-58
2021/07/18 13:30:23;;;;;;;22.97;5.27;;;;;;;;;;5033763;28;20097;-59
2021/07/18 13:32:52;;;;;;;12.80;5.33;;;;;;;;;;5033369;28;20025;-59
2021/07/18 13:35:19;;;;;;;10.07;4.27;;;;;;;;;;5033468;28;20031;-59
2021/07/18 13:37:48;;;;;;;8.67;3.87;;;;;;;;;;5033413;28;20029;-59
2021/07/18 13:40:35;;;;;;;15.87;4.83;;;;;;;;;;5033353;28;20108;-59
2021/07/18 13:43:09;;;;;;;7.77;3.73;;;;;;;;;;5033214;28;20045;-59
2021/07/18 13:45:38;;;;;;;12.50;4.60;;;;;;;;;;5033239;28;20033;-59
2021/07/18 13:48:15;;;;;;;11.33;4.60;;;;;;;;;;5033231;28;20104;-59
2021/07/18 13:50:42;;;;;;;17.13;4.80;;;;;;;;;;5033234;28;20048;-59
2021/07/18 13:53:09;;;;;;;15.33;4.30;;;;;;;;;;5033010;28;20025;-59
2021/07/18 13:55:37;;;;;;;10.17;3.40;;;;;;;;;;5033185;28;20018;-59
2021/07/18 13:58:04;;;;;;;9.73;3.07;;;;;;;;;;5033286;28;20075;-59
2021/07/18 14:00:31;;;;;;;9.30;3.27;;;;;;;;;;5033162;28;20373;-59
2021/07/18 14:02:58;;;;;;;12.77;3.60;;;;;;;;;;5033187;28;20033;-59
2021/07/18 14:05:25;;;;;;;10.27;4.13;;;;;;;;;;5032995;28;20037;-60
2021/07/18 14:07:51;;;;;;;21.23;3.50;;;;;;;;;;5034445;28;20060;-59
2021/07/18 14:10:18;;;;;;;10.67;3.50;;;;;;;;;;5033078;28;20036;-60
2021/07/18 14:12:46;;;;;;;9.23;3.30;;;;;;;;;;5032814;28;20110;-60
2021/07/18 14:15:14;;;;;;;8.40;2.40;;;;;;;;;;5033025;28;20112;-60
2021/07/18 14:17:50;;;;;;;7.10;3.37;;;;;;;;;;5032603;28;20476;-60
2021/07/18 14:20:26;;;;;;;7.23;3.07;;;;;;;;;;5032775;28;20087;-60
2021/07/18 14:22:53;;;;;;;9.10;3.80;;;;;;;;;;5032740;28;20049;-60
2021/07/18 14:25:21;;;;;;;10.70;2.63;;;;;;;;;;5032635;28;20116;-60
2021/07/18 14:27:48;;;;;;;4.17;1.77;;;;;;;;;;5032849;28;20076;-60
2021/07/18 14:30:16;;;;;;;9.60;2.47;;;;;;;;;;5032628;28;20404;-60
2021/07/18 14:32:44;;;;;;;5.23;2.13;;;;;;;;;;5032672;28;20029;-60
2021/07/18 14:35:11;;;;;;;5.57;2.07;;;;;;;;;;5032805;28;20189;-60
2021/07/18 14:37:41;;;;;;;6.77;2.07;;;;;;;;;;5032578;28;20036;-60
2021/07/18 14:40:09;;;;;;;10.33;3.17;;;;;;;;;;5032729;28;20025;-60
2021/07/18 14:42:36;;;;;;;8.23;2.13;;;;;;;;;;5032677;28;20037;-60
2021/07/18 14:45:04;;;;;;;11.67;2.50;;;;;;;;;;5032601;28;20472;-60
2021/07/18 14:47:31;;;;;;;11.73;3.50;;;;;;;;;;5032562;28;20518;-60
2021/07/18 15:53:12;;;;;;;5.40;2.47;;;;;;;;;;5061813;28;20119;-61
2021/07/18 15:55:41;;;;;;;6.10;2.25;;;;;;;;;;5035350;28;20493;-61
2021/07/18 15:58:08;;;;;;;6.93;2.53;;;;;;;;;;5035480;28;20021;-60
2021/07/18 16:00:35;;;;;;;6.30;2.50;;;;;;;;;;5034105;28;20485;-59
2021/07/18 16:03:03;;;;;;;9.67;1.50;;;;;;;;;;5035338;28;20022;-60
2021/07/18 16:05:29;;;;;;;7.07;1.40;;;;;;;;;;5035186;28;20658;-59
2021/07/18 16:07:56;;;;;;;5.37;2.13;;;;;;;;;;5035083;28;20467;-60
2021/07/18 16:10:23;;;;;;;6.07;1.60;;;;;;;;;;5035125;28;20025;-59
2021/07/18 16:12:50;;;;;;;4.20;1.50;;;;;;;;;;5035047;28;20104;-60
2021/07/18 16:15:17;;;;;;;7.18;1.70;;;;;;;;;;5034999;28;20484;-59
2021/07/18 16:17:44;;;;;;;9.70;2.65;;;;;;;;;;5034902;28;20067;-58
2021/07/18 16:20:11;;;;;;;3.75;1.65;;;;;;;;;;5034888;28;20503;-60
2021/07/18 16:22:38;;;;;;;7.93;1.55;;;;;;;;;;5034968;28;20026;-60
2021/07/18 16:25:06;;;;;;;8.02;2.30;;;;;;;;;;5034742;28;20034;-60
2021/07/18 16:27:33;;;;;;;6.82;2.38;;;;;;;;;;5034697;28;20056;-60
2021/07/18 16:30:00;;;;;;;6.10;2.50;;;;;;;;;;5034767;28;20037;-59
2021/07/18 16:32:27;;;;;;;5.68;2.03;;;;;;;;;;5034857;28;20079;-60
2021/07/18 16:34:54;;;;;;;10.75;2.28;;;;;;;;;;5034747;28;20185;-59
2021/07/18 16:37:21;;;;;;;8.45;2.38;;;;;;;;;;5034575;28;20029;-60
2021/07/18 16:39:59;;;;;;;9.18;1.63;;;;;;;;;;5034457;28;20024;-60
2021/07/18 16:42:26;;;;;;;13.13;2.08;;;;;;;;;;5034417;28;20033;-60
2021/07/18 16:44:53;;;;;;;9.60;2.50;;;;;;;;;;5034476;28;20472;-60
2021/07/18 16:47:20;;;;;;;5.90;1.90;;;;;;;;;;5034511;28;20021;-62
2021/07/18 16:49:47;;;;;;;5.82;1.48;;;;;;;;;;5034483;28;20025;-61
2021/07/18 16:52:16;;;;;;;4.93;1.42;;;;;;;;;;5034391;28;20022;-61
2021/07/18 16:54:43;;;;;;;6.65;1.63;;;;;;;;;;5036142;28;20054;-61
2021/07/18 16:57:10;;;;;;;7.95;1.98;;;;;;;;;;5034309;28;20095;-60
2021/07/18 16:59:36;;;;;;;3.22;1.30;;;;;;;;;;5034364;28;20025;-61
2021/07/18 17:02:03;;;;;;;5.43;1.70;;;;;;;;;;5034293;28;20029;-61
2021/07/18 17:04:30;;;;;;;5.35;1.77;;;;;;;;;;5034019;28;20511;-61
2021/07/18 17:06:59;;;;;;;11.27;2.00;;;;;;;;;;5034306;28;20034;-60
2021/07/18 17:09:26;;;;;;;7.18;1.70;;;;;;;;;;5034040;28;20021;-61
2021/07/18 17:11:55;;;;;;;10.07;2.15;;;;;;;;;;5033495;28;20396;-60
2021/07/18 17:14:22;;;;;;;7.22;1.60;;;;;;;;;;5033888;28;20045;-61
2021/07/18 17:16:48;;;;;;;5.32;1.77;;;;;;;;;;5033980;28;20057;-60
2021/07/18 17:19:15;;;;;;;5.65;2.00;;;;;;;;;;5016128;28;20029;-61
2021/07/18 17:21:42;;;;;;;11.68;1.88;;;;;;;;;;5033903;28;20633;-61
2021/07/18 17:24:09;;;;;;;5.15;1.70;;;;;;;;;;5033811;28;20488;-61
2021/07/18 17:26:36;;;;;;;5.20;1.50;;;;;;;;;;5033722;28;20451;-61
2021/07/18 17:29:03;;;;;;;3.20;1.23;;;;;;;;;;5033537;28;20029;-61
2021/07/18 17:31:30;;;;;;;4.65;1.30;;;;;;;;;;5033683;28;20040;-60
2021/07/18 17:33:56;;;;;;;8.27;1.80;;;;;;;;;;5033661;28;20053;-60
2021/07/18 17:36:23;;;;;;;7.65;1.80;;;;;;;;;;5033560;28;20025;-60
2021/07/18 17:38:50;;;;;;;6.88;1.73;;;;;;;;;;5033616;28;20099;-61
2021/07/18 17:41:17;;;;;;;6.43;1.58;;;;;;;;;;5033317;28;20022;-61
2021/07/18 17:43:44;;;;;;;11.20;1.80;;;;;;;;;;5033401;28;20060;-61
2021/07/18 17:46:11;;;;;;;6.43;1.70;;;;;;;;;;5033303;28;20083;-60
2021/07/18 17:48:38;;;;;;;3.53;1.25;;;;;;;;;;5033333;28;20029;-60
2021/07/18 17:51:05;;;;;;;4.07;1.63;;;;;;;;;;5033136;28;20037;-60
2021/07/18 17:53:31;;;;;;;10.48;2.75;;;;;;;;;;5035194;28;20049;-61
2021/07/18 17:55:58;;;;;;;1.95;1.05;;;;;;;;;;5033303;28;20029;-61
2021/07/18 17:58:25;;;;;;;1.88;0.70;;;;;;;;;;5033231;28;20025;-60
2021/07/18 18:00:52;;;;;;;3.45;1.42;;;;;;;;;;5033138;28;20097;-60
2021/07/18 18:03:19;;;;;;;5.85;1.33;;;;;;;;;;5033186;28;20108;-60
2021/07/18 18:05:46;;;;;;;8.70;1.17;;;;;;;;;;5033117;28;20388;-61
2021/07/18 18:08:13;;;;;;;0.60;0.55;;;;;;;;;;5032876;28;20026;-61
2021/07/18 18:10:40;;;;;;;0.93;0.50;;;;;;;;;;5033038;28;20112;-61
2021/07/18 18:13:07;;;;;;;9.57;1.23;;;;;;;;;;5032990;28;20029;-60
2021/07/18 18:15:33;;;;;;;2.70;0.90;;;;;;;;;;5033124;28;20025;-60
2021/07/18 18:18:00;;;;;;;2.60;0.77;;;;;;;;;;5015172;28;20033;-61
2021/07/18 18:20:27;;;;;;;7.65;0.88;;;;;;;;;;5032941;28;20384;-61
2021/07/18 18:22:54;;;;;;;2.03;0.55;;;;;;;;;;5032224;28;20080;-61
2021/07/18 18:25:21;;;;;;;0.52;0.30;;;;;;;;;;5032740;28;20040;-60
2021/07/18 18:27:48;;;;;;;6.55;0.88;;;;;;;;;;5032829;28;20419;-60
2021/07/18 18:30:14;;;;;;;1.60;0.68;;;;;;;;;;5032878;28;20029;-61
2021/07/18 18:32:45;;;;;;;2.72;0.80;;;;;;;;;;5032711;28;20381;-61
2021/07/18 18:38:15;;;;;;;3.10;0.73;;;;;;;;;;5030865;28;20045;-61
2021/07/18 18:40:42;;;;;;;6.05;1.40;;;;;;;;;;5032567;28;20522;-60
2021/07/18 18:43:09;;;;;;;2.22;0.60;;;;;;;;;;5032686;28;20112;-60
2021/07/18 18:45:36;;;;;;;2.83;1.27;;;;;;;;;;5032622;28;20042;-58
2021/07/18 18:48:04;;;;;;;1.63;0.60;;;;;;;;;;5032610;28;20383;-58
2021/07/18 18:50:31;;;;;;;3.40;0.75;;;;;;;;;;5032452;28;20427;-58
2021/07/18 18:52:58;;;;;;;5.85;0.90;;;;;;;;;;5032884;28;20365;-58
2021/07/18 18:55:25;;;;;;;3.40;0.60;;;;;;;;;;5032018;28;20389;-58
2021/07/18 18:57:52;;;;;;;4.43;0.77;;;;;;;;;;5032499;28;20428;-58
2021/07/18 19:00:19;;;;;;;3.45;0.85;;;;;;;;;;5032420;28;20116;-59
2021/07/18 19:02:45;;;;;;;3.22;0.77;;;;;;;;;;5032444;28;20026;-61
2021/07/18 19:05:12;;;;;;;1.55;0.40;;;;;;;;;;5032393;28;20049;-60
2021/07/18 19:07:39;;;;;;;1.80;0.52;;;;;;;;;;5032346;28;20097;-60
2021/07/18 19:10:07;;;;;;;1.77;0.65;;;;;;;;;;5032493;28;20029;-60
2021/07/18 19:12:39;;;;;;;2.75;0.60;;;;;;;;;;5032459;28;20380;-60
2021/07/18 19:15:07;;;;;;;2.65;0.90;;;;;;;;;;5032327;28;20030;-60
2021/07/18 19:17:34;;;;;;;3.13;0.60;;;;;;;;;;5032420;28;20028;-60
2021/07/18 19:20:00;;;;;;;1.15;0.73;;;;;;;;;;5032404;28;20032;-61
2021/07/18 19:22:27;;;;;;;9.25;1.38;;;;;;;;;;5032336;28;20025;-60
2021/07/18 19:24:54;;;;;;;14.63;1.10;;;;;;;;;;5032034;28;20034;-61
2021/07/18 19:27:22;;;;;;;14.23;1.92;;;;;;;;;;5032341;28;20112;-61
2021/07/18 19:29:49;;;;;;;3.03;1.10;;;;;;;;;;5032265;28;20475;-61
2021/07/18 19:32:15;;;;;;;5.20;0.90;;;;;;;;;;5032327;28;20045;-60
2021/07/18 19:34:42;;;;;;;8.30;4.60;;;;;;;;;;5033901;28;20026;-61
2021/07/18 19:37:09;;;;;;;2.97;0.95;;;;;;;;;;5035822;28;20443;-61
2021/07/18 19:39:36;;;;;;;4.40;1.38;;;;;;;;;;5035604;28;20021;-61
2021/07/18 19:42:03;;;;;;;7.60;1.65;;;;;;;;;;5035597;28;20029;-61
2021/07/18 19:44:29;;;;;;;7.07;1.20;;;;;;;;;;5035537;28;20396;-61
2021/07/18 19:46:56;;;;;;;2.35;0.88;;;;;;;;;;5035567;28;20026;-60
2021/07/18 19:49:23;;;;;;;6.72;1.00;;;;;;;;;;5035532;28;20029;-61
2021/07/18 19:51:50;;;;;;;4.45;0.80;;;;;;;;;;5035635;28;20536;-60
2021/07/18 19:54:17;;;;;;;1.23;0.60;;;;;;;;;;5036932;28;20129;-61
2021/07/18 19:56:43;;;;;;;4.53;0.80;;;;;;;;;;5035452;28;20032;-61
2021/07/18 19:59:11;;;;;;;2.63;1.15;;;;;;;;;;5035446;28;20100;-61
2021/07/18 20:01:38;;;;;;;3.20;0.68;;;;;;;;;;5035251;28;20364;-61
2021/07/18 20:04:05;;;;;;;12.38;1.40;;;;;;;;;;5035175;28;20416;-61
2021/07/18 20:06:32;;;;;;;0.88;0.57;;;;;;;;;;5035002;28;20029;-61
2021/07/18 20:08:59;;;;;;;1.52;0.45;;;;;;;;;;5035123;28;20136;-61
2021/07/18 20:11:26;;;;;;;5.50;0.90;;;;;;;;;;5035330;28;20057;-61
2021/07/18 20:13:52;;;;;;;1.23;0.47;;;;;;;;;;5035164;28;20025;-61
2021/07/18 20:16:19;;;;;;;3.72;0.90;;;;;;;;;;5034981;28;20037;-61
2021/07/18 20:18:46;;;;;;;1.90;1.00;;;;;;;;;;5034966;28;20483;-61
2021/07/18 20:21:13;;;;;;;1.83;0.77;;;;;;;;;;5034981;28;20486;-61
2021/07/18 20:23:39;;;;;;;5.18;0.95;;;;;;;;;;5035112;28;20021;-60
2021/07/18 20:26:06;;;;;;;2.67;1.10;;;;;;;;;;5034771;28;20080;-61
2021/07/18 20:28:33;;;;;;;2.83;0.98;;;;;;;;;;5034979;28;20032;-61
2021/07/18 20:31:00;;;;;;;1.30;0.68;;;;;;;;;;5035338;28;20072;-61
2021/07/18 20:33:28;;;;;;;2.42;0.77;;;;;;;;;;5035016;28;20030;-61
2021/07/18 20:35:56;;;;;;;5.80;1.30;;;;;;;;;;5034764;28;20528;-61
2021/07/18 20:38:23;;;;;;;1.13;0.70;;;;;;;;;;5035003;28;20025;-61
2021/07/18 20:40:49;;;;;;;1.17;0.73;;;;;;;;;;5034709;28;20108;-61
2021/07/18 20:43:16;;;;;;;3.75;0.80;;;;;;;;;;5034510;28;20491;-61
2021/07/18 20:45:43;;;;;;;1.27;0.65;;;;;;;;;;5033857;28;20037;-61
2021/07/18 20:48:10;;;;;;;1.95;0.70;;;;;;;;;;5034614;28;20025;-61
2021/07/18 20:50:36;;;;;;;3.60;0.70;;;;;;;;;;5034574;28;20075;-61
2021/07/18 20:53:03;;;;;;;1.67;0.90;;;;;;;;;;5034384;28;20104;-61
2021/07/18 20:55:30;;;;;;;1.88;0.68;;;;;;;;;;5035460;28;20057;-61
2021/07/18 20:57:57;;;;;;;3.85;1.02;;;;;;;;;;5034234;28;20369;-61
2021/07/18 21:00:24;;;;;;;3.22;0.95;;;;;;;;;;5034369;28;20286;-60
2021/07/18 21:02:51;;;;;;;2.00;0.90;;;;;;;;;;5034285;28;20017;-61
2021/07/18 21:05:19;;;;;;;1.75;0.60;;;;;;;;;;5033964;28;20042;-61
2021/07/18 21:07:46;;;;;;;0.93;0.52;;;;;;;;;;5034117;28;20397;-61
2021/07/18 21:10:13;;;;;;;2.42;0.93;;;;;;;;;;5034103;28;20449;-61
2021/07/18 21:12:43;;;;;;;1.00;0.60;;;;;;;;;;5034261;28;20053;-61
2021/07/18 21:15:11;;;;;;;1.13;0.55;;;;;;;;;;5034325;28;20385;-60
2021/07/18 21:17:38;;;;;;;1.88;0.73;;;;;;;;;;5033981;28;20392;-60
2021/07/18 21:20:06;;;;;;;4.68;0.80;;;;;;;;;;5033952;28;20032;-61
2021/07/18 21:22:33;;;;;;;2.40;1.00;;;;;;;;;;5034078;28;20030;-61
2021/07/18 21:25:00;;;;;;;3.25;0.65;;;;;;;;;;5033472;28;20045;-61
2021/07/18 21:27:28;;;;;;;6.35;1.08;;;;;;;;;;5033856;28;20044;-60
2021/07/18 21:29:58;;;;;;;7.35;0.95;;;;;;;;;;5033822;28;20532;-61
2021/07/18 21:32:25;;;;;;;1.67;0.88;;;;;;;;;;5033882;28;20109;-61
2021/07/18 21:34:53;;;;;;;2.08;0.70;;;;;;;;;;5033377;28;20506;-60
2021/07/18 21:49:35;;;;;;;1.45;0.77;;;;;;;;;;5012831;28;20052;-60
2021/07/18 21:52:02;;;;;;;4.13;1.10;;;;;;;;;;4996347;28;20026;-60
2021/07/18 21:54:28;;;;;;;2.15;0.98;;;;;;;;;;4996311;28;20493;-60
2021/07/18 21:56:55;;;;;;;3.42;0.85;;;;;;;;;;5032913;28;20358;-60
2021/07/18 21:59:22;;;;;;;1.85;1.00;;;;;;;;;;5032639;28;20037;-60
2021/07/18 22:01:49;;;;;;;3.60;0.95;;;;;;;;;;5033252;28;20068;-60
2021/07/18 22:04:16;;;;;;;1.48;0.90;;;;;;;;;;5032967;28;20120;-59
2021/07/18 22:06:42;;;;;;;2.10;0.90;;;;;;;;;;5033006;28;20300;-61
2021/07/18 22:09:09;;;;;;;3.30;1.33;;;;;;;;;;5032944;28;20034;-60
2021/07/18 22:11:36;;;;;;;3.53;1.42;;;;;;;;;;5032995;28;20036;-60
2021/07/18 22:14:03;;;;;;;2.08;0.70;;;;;;;;;;5033115;28;20096;-60
2021/07/18 22:16:30;;;;;;;1.98;0.60;;;;;;;;;;5032973;28;20033;-60
2021/07/18 22:18:57;;;;;;;3.55;0.85;;;;;;;;;;5032911;28;20111;-60
2021/07/18 22:21:23;;;;;;;3.25;0.98;;;;;;;;;;5033020;28;20152;-59
2021/07/18 22:23:50;;;;;;;3.10;1.00;;;;;;;;;;5032795;28;20024;-60
2021/07/18 22:26:17;;;;;;;2.70;1.00;;;;;;;;;;5032838;28;20116;-60
2021/07/18 22:28:44;;;;;;;2.65;0.90;;;;;;;;;;5033180;28;20029;-60
2021/07/18 22:31:13;;;;;;;4.22;0.77;;;;;;;;;;5032721;28;20284;-59
2021/07/18 22:33:41;;;;;;;6.15;1.25;;;;;;;;;;5015326;28;20035;-59
2021/07/18 22:36:08;;;;;;;4.22;0.73;;;;;;;;;;5033072;28;20025;-59
2021/07/18 22:38:34;;;;;;;3.90;1.05;;;;;;;;;;5032800;28;20468;-59
2021/07/18 22:41:02;;;;;;;1.98;0.80;;;;;;;;;;5032827;28;20026;-59
2021/07/18 22:43:31;;;;;;;3.30;1.15;;;;;;;;;;5032662;28;20079;-59
2021/07/18 22:45:59;;;;;;;1.45;0.73;;;;;;;;;;5032313;28;20034;-59
2021/07/18 22:48:32;;;;;;;1.42;0.70;;;;;;;;;;5032447;28;20114;-59
2021/07/18 22:50:59;;;;;;;7.22;0.90;;;;;;;;;;5032693;28;20044;-59
2021/07/18 22:53:26;;;;;;;2.40;1.10;;;;;;;;;;5032749;28;20021;-59
2021/07/18 22:55:53;;;;;;;2.95;1.30;;;;;;;;;;4993242;28;20049;-60
2021/07/18 22:58:23;;;;;;;5.70;0.90;;;;;;;;;;4993429;28;20030;-59
2021/07/18 23:00:54;;;;;;;1.55;0.80;;;;;;;;;;4992953;28;20110;-60
2021/07/18 23:03:23;;;;;;;1.40;0.60;;;;;;;;;;4993281;28;20110;-59
2021/07/18 23:05:51;;;;;;;2.05;0.60;;;;;;;;;;4993134;28;20034;-60
2021/07/18 23:08:19;;;;;;;3.05;0.60;;;;;;;;;;4993363;28;20450;-60
2021/07/18 23:10:46;;;;;;;7.10;2.27;;;;;;;;;;4996635;28;20060;-59
2021/07/18 23:13:14;;;;;;;7.43;1.10;;;;;;;;;;4997053;28;20023;-60
2021/07/18 23:15:42;;;;;;;2.53;0.73;;;;;;;;;;4996944;28;20038;-59
2021/07/18 23:18:10;;;;;;;4.00;1.00;;;;;;;;;;4997199;28;20026;-58
2021/07/18 23:20:36;;;;;;;3.97;1.03;;;;;;;;;;4997102;28;20026;-58
2021/07/18 23:23:04;;;;;;;1.90;0.60;;;;;;;;;;4981025;28;20086;-58
2021/07/18 23:25:31;;;;;;;4.90;1.00;;;;;;;;;;4996636;28;20059;-59
2021/07/18 23:27:58;;;;;;;4.77;1.40;;;;;;;;;;4996938;28;20049;-59
2021/07/18 23:30:25;;;;;;;1.23;0.60;;;;;;;;;;4996439;28;20520;-59
2021/07/18 23:32:51;;;;;;;3.60;0.97;;;;;;;;;;4996296;28;20472;-59
2021/07/18 23:35:18;;;;;;;2.47;0.80;;;;;;;;;;4996276;28;20034;-59
2021/07/18 23:37:45;;;;;;;3.37;0.60;;;;;;;;;;4996331;28;20038;-59
2021/07/18 23:40:14;;;;;;;7.53;0.67;;;;;;;;;;4996248;28;20524;-59
2021/07/18 23:42:42;;;;;;;5.47;1.00;;;;;;;;;;4996270;28;20053;-56
2021/07/18 23:45:12;;;;;;;5.37;0.97;;;;;;;;;;4996020;28;20037;-57
2021/07/18 23:47:39;;;;;;;3.20;0.80;;;;;;;;;;4996191;28;20030;-57
2021/07/18 23:50:06;;;;;;;2.97;1.20;;;;;;;;;;4996370;28;20026;-59
2021/07/18 23:52:34;;;;;;;2.30;1.03;;;;;;;;;;4996335;28;20028;-59
2021/07/18 23:55:01;;;;;;;4.17;0.80;;;;;;;;;;5009383;28;20058;-59
2021/07/18 23:57:28;;;;;;;3.00;0.90;;;;;;;;;;5015779;28;20112;-59
2021/07/18 23:59:56;;;;;;;2.33;1.00;;;;;;;;;;5015806;28;20034;-59
